| time (UTC) | temp C | wind direction | speed KPH | gust KPH | rain 1hr cm | rain 24hr cm | rain mn cm | humidity % | barometer mb |
| 20260508023015 | 9 | 167 | 0.0 | 4.8 | 0.00 | 3.33 | 3.33 | 99 | 1001.7 |
| 20260508021516 | 9 | 197 | 3.2 | 17.7 | 0.00 | 3.33 | 3.33 | 99 | 1001.9 |
| 20260508020014 | 8 | 191 | 14.5 | 22.5 | 0.00 | 3.33 | 3.33 | 98 | 1001.8 |
| 20260508014512 | 8 | 206 | 8.0 | 16.1 | 0.00 | 3.33 | 3.33 | 98 | 1001.7 |
| 20260508013010 | 9 | 212 | 6.4 | 14.5 | 0.00 | 3.33 | 3.33 | 98 | 1001.5 |
| 20260508011509 | 9 | 214 | 6.4 | 11.3 | 0.00 | 3.33 | 3.33 | 98 | 1001.3 |
| 20260508010020 | 10 | 202 | 9.7 | 17.7 | 0.00 | 3.33 | 3.33 | 98 | 1001.6 |
| 20260508004505 | 9 | 197 | 11.3 | 17.7 | 0.00 | 3.33 | 3.33 | 98 | 1001.6 |
| 20260508003005 | 10 | 189 | 11.3 | 20.9 | 0.00 | 3.33 | 3.33 | 98 | 1001.8 |
| 20260508001505 | 10 | 201 | 16.1 | 24.1 | 0.00 | 3.33 | 3.33 | 98 | 1001.8 |
| 20260508000005 | 9 | 208 | 14.5 | 24.1 | 0.00 | 3.33 | 3.33 | 98 | 1001.8 |
| 20260507234505 | 9 | 357 | 14.5 | 27.4 | 0.00 | 3.33 | 3.33 | 98 | 1001.8 |
| 20260507233001 | 10 | 212 | 11.3 | 22.5 | 0.00 | 3.33 | 3.33 | 98 | 1002.0 |
| 20260507231501 | 10 | 199 | 12.9 | 24.1 | 0.00 | 3.33 | 3.33 | 98 | 1001.9 |
| 20260507230104 | 10 | 197 | 19.3 | 29.0 | 0.00 | 3.33 | 3.33 | 98 | 1002.0 |
| 20260507224558 | 10 | 209 | 17.7 | 25.7 | 0.00 | 3.33 | 3.33 | 98 | 1001.8 |
| 20260507223103 | 10 | 185 | 12.9 | 19.3 | 0.00 | 3.33 | 3.33 | 97 | 1002.4 |
| 20260507221601 | 10 | 199 | 14.5 | 19.3 | 0.00 | 3.33 | 3.33 | 97 | 1002.5 |
| 20260507220054 | 10 | 195 | 12.9 | 22.5 | 0.00 | 3.33 | 3.33 | 97 | 1002.6 |
| 20260507214551 | 10 | 357 | 12.9 | 24.1 | 0.05 | 3.33 | 3.33 | 97 | 1002.5 |
| 20260507213050 | 10 | 238 | 1.6 | 8.0 | 0.08 | 3.33 | 3.33 | 97 | 1002.4 |
| 20260507211557 | 10 | 229 | 6.4 | 12.9 | 0.18 | 3.33 | 3.33 | 97 | 1002.1 |
| 20260507210049 | 10 | 191 | 8.0 | 22.5 | 0.33 | 3.33 | 3.33 | 98 | 1001.5 |
| 20260507204542 | 10 | 231 | 3.2 | 17.7 | 0.58 | 3.28 | 3.28 | 97 | 1001.9 |
| 20260507203039 | 9 | 202 | 9.7 | 16.1 | 0.86 | 3.25 | 3.25 | 98 | 1002.5 |
| 20260507201537 | 9 | 221 | 4.8 | 12.9 | 1.17 | 3.15 | 3.15 | 97 | 1002.9 |
| 20260507200036 | 9 | 206 | 11.3 | 16.1 | 1.32 | 2.97 | 2.97 | 97 | 1003.5 |
| 20260507194531 | 9 | 190 | 4.8 | 9.7 | 1.37 | 2.69 | 2.69 | 96 | 1004.2 |
| 20260507193030 | 10 | 208 | 12.9 | 32.2 | 1.27 | 2.36 | 2.36 | 95 | 1004.5 |
| 20260507191528 | 10 | 211 | 24.1 | 41.8 | 1.27 | 1.96 | 1.96 | 97 | 1004.4 |
| 20260507190024 | 10 | 181 | 19.3 | 33.8 | 1.09 | 1.65 | 1.65 | 97 | 1004.4 |
| 20260507184520 | 11 | 202 | 17.7 | 29.0 | 0.79 | 1.30 | 1.30 | 97 | 1004.7 |
| 20260507183022 | 11 | 197 | 19.3 | 32.2 | 0.56 | 1.09 | 1.09 | 96 | 1005.0 |
| 20260507181518 | 11 | 260 | 9.7 | 19.3 | 0.18 | 0.69 | 0.69 | 94 | 1004.4 |
| 20260507180017 | 13 | 247 | 11.3 | 35.4 | 0.05 | 0.53 | 0.53 | 94 | 1004.2 |
| 20260507174538 | 12 | 231 | 20.9 | 45.1 | 0.05 | 0.51 | 0.51 | 96 | 1003.9 |
| 20260507173021 | 11 | 187 | 12.9 | 27.4 | 0.05 | 0.51 | 0.51 | 96 | 1004.2 |
| 20260507171511 | 11 | 233 | 16.1 | 25.7 | 0.03 | 0.51 | 0.51 | 95 | 1004.5 |
| 20260507170010 | 10 | 208 | 19.3 | 29.0 | 0.03 | 0.51 | 0.51 | 95 | 1005.1 |
| 20260507164507 | 10 | 210 | 11.3 | 17.7 | 0.00 | 0.48 | 0.48 | 94 | 1005.4 |
| 20260507163005 | 11 | 357 | 20.9 | 29.0 | 0.00 | 0.48 | 0.48 | 94 | 1005.7 |
| 20260507161502 | 11 | 196 | 19.3 | 32.2 | 0.00 | 0.48 | 0.48 | 94 | 1006.3 |
| 20260507160003 | 11 | 191 | 17.7 | 25.7 | 0.00 | 0.48 | 0.48 | 94 | 1006.6 |
| 20260507154559 | 12 | 205 | 16.1 | 32.2 | 0.00 | 0.48 | 0.48 | 91 | 1007.1 |
| 20260507153058 | 12 | 357 | 19.3 | 40.2 | 0.00 | 0.48 | 0.48 | 91 | 1007.2 |
| 20260507151600 | 13 | 357 | 19.3 | 40.2 | 0.00 | 0.48 | 0.48 | 91 | 1007.7 |
| 20260507150055 | 13 | 357 | 27.4 | 43.5 | 0.00 | 0.48 | 0.48 | 93 | 1007.8 |
| 20260507144553 | 12 | 357 | 19.3 | 32.2 | 0.00 | 0.48 | 0.48 | 91 | 1008.0 |
| 20260507143058 | 13 | 357 | 27.4 | 48.3 | 0.00 | 0.48 | 0.48 | 92 | 1008.3 |
| 20260507141548 | 13 | 175 | 29.0 | 48.3 | 0.00 | 0.48 | 0.48 | 92 | 1008.7 |
| 20260507140057 | 13 | 357 | 30.6 | 49.9 | 0.00 | 0.48 | 0.48 | 93 | 1008.9 |
| 20260507134546 | 12 | 357 | 24.1 | 41.8 | 0.00 | 0.48 | 0.48 | 94 | 1009.0 |
| 20260507133045 | 12 | 357 | 17.7 | 45.1 | 0.00 | 0.48 | 0.48 | 95 | 1009.2 |
| 20260507131610 | 12 | 357 | 16.1 | 24.1 | 0.00 | 0.48 | 0.48 | 95 | 1009.2 |
| 20260507130045 | 12 | 357 | 14.5 | 38.6 | 0.00 | 0.48 | 0.48 | 93 | 1009.4 |
| 20260507124551 | 13 | 185 | 11.3 | 32.2 | 0.05 | 0.48 | 0.48 | 94 | 1009.0 |
| 20260507123044 | 13 | 209 | 20.9 | 40.2 | 0.08 | 0.48 | 0.48 | 95 | 1009.4 |
| 20260507121536 | 12 | 357 | 29.0 | 45.1 | 0.20 | 0.48 | 0.48 | 95 | 1009.3 |
| 20260507120038 | 12 | 357 | 30.6 | 45.1 | 0.23 | 0.48 | 0.48 | 96 | 1009.9 |
| 20260507114529 | 11 | 357 | 22.5 | 46.7 | 0.28 | 0.43 | 0.43 | 97 | 1010.7 |
| 20260507113058 | 11 | 167 | 25.7 | 53.1 | 0.25 | 0.41 | 0.41 | 98 | 1010.7 |
| 20260507111526 | 11 | 357 | 17.7 | 40.2 | 0.15 | 0.28 | 0.28 | 98 | 1011.0 |
| 20260507110023 | 10 | 357 | 12.9 | 29.0 | 0.13 | 0.23 | 0.23 | 98 | 1010.8 |
| 20260507104521 | 10 | 207 | 12.9 | 17.7 | 0.05 | 0.15 | 0.15 | 98 | 1011.0 |
| 20260507103020 | 10 | 185 | 16.1 | 25.7 | 0.03 | 0.15 | 0.15 | 98 | 1011.4 |
| 20260507101524 | 10 | 193 | 12.9 | 22.5 | 0.03 | 0.13 | 0.13 | 98 | 1011.9 |
| 20260507100030 | 10 | 357 | 16.1 | 24.1 | 0.03 | 0.13 | 0.13 | 98 | 1011.4 |
| 20260507094515 | 10 | 179 | 11.3 | 24.1 | 0.03 | 0.13 | 0.13 | 98 | 1011.9 |
| 20260507093014 | 10 | 357 | 17.7 | 25.7 | 0.03 | 0.13 | 0.13 | 98 | 1012.0 |
| 20260507091516 | 9 | 252 | 3.2 | 11.3 | 0.00 | 0.10 | 0.10 | 98 | 1012.2 |
| 20260507090013 | 9 | 203 | 6.4 | 16.1 | 0.00 | 0.10 | 0.10 | 98 | 1011.9 |
| 20260507084528 | 9 | 182 | 14.5 | 20.9 | 0.03 | 0.10 | 0.10 | 97 | 1011.7 |
| 20260507083019 | 10 | 226 | 8.0 | 16.1 | 0.03 | 0.10 | 0.10 | 98 | 1012.0 |
| 20260507081507 | 10 | 199 | 12.9 | 22.5 | 0.03 | 0.10 | 0.10 | 98 | 1012.3 |
| 20260507080006 | 10 | 192 | 4.8 | 16.1 | 0.08 | 0.10 | 0.10 | 98 | 1012.4 |
| 20260507074504 | 10 | 204 | 11.3 | 30.6 | 0.08 | 0.08 | 0.08 | 98 | 1012.6 |
| 20260507073001 | 10 | 231 | 16.1 | 20.9 | 0.08 | 0.08 | 0.08 | 98 | 1012.9 |
| 20260507071600 | 9 | 206 | 9.7 | 16.1 | 0.08 | 0.08 | 0.08 | 98 | 1013.1 |
| 20260507070108 | 9 | 198 | 9.7 | 14.5 | 0.03 | 0.03 | 0.03 | 97 | 1013.2 |
| 20260507064559 | 10 | 198 | 11.3 | 17.7 | 0.00 | 0.00 | 0.00 | 98 | 1013.5 |
| 20260507063056 | 10 | 195 | 12.9 | 17.7 | 0.00 | 0.00 | 0.00 | 98 | 1013.7 |
| 20260507061553 | 10 | 179 | 11.3 | 22.5 | 0.00 | 0.00 | 0.00 | 97 | 1013.9 |
| 20260507060051 | 10 | 357 | 11.3 | 25.7 | 0.00 | 0.00 | 0.00 | 97 | 1014.2 |
| 20260507054549 | 10 | 357 | 14.5 | 24.1 | 0.00 | 0.00 | 0.00 | 97 | 1014.4 |
| 20260507053047 | 10 | 214 | 17.7 | 27.4 | 0.00 | 0.00 | 0.00 | 97 | 1014.5 |
| 20260507051546 | 10 | 209 | 20.9 | 30.6 | 0.00 | 0.00 | 0.00 | 97 | 1014.8 |
| 20260507044550 | 10 | 357 | 17.7 | 27.4 | 0.00 | 0.00 | 0.00 | 97 | 1015.4 |
| 20260507043037 | 10 | 357 | 12.9 | 19.3 | 0.00 | 0.00 | 0.00 | 97 | 1015.7 |
| 20260507041535 | 10 | 357 | 17.7 | 30.6 | 0.00 | 0.00 | 0.00 | 97 | 1016.0 |
| 20260507040034 | 9 | 225 | 16.1 | 24.1 | 0.00 | 0.00 | 0.00 | 96 | 1016.2 |
| 20260507034536 | 9 | 357 | 12.9 | 33.8 | 0.00 | 0.00 | 0.00 | 96 | 1016.5 |
| 20260507033037 | 9 | 199 | 14.5 | 30.6 | 0.00 | 0.00 | 0.00 | 96 | 1016.6 |
| 20260507031532 | 9 | 204 | 16.1 | 30.6 | 0.00 | 0.00 | 0.00 | 96 | 1016.7 |
| 20260507030031 | 10 | 212 | 22.5 | 35.4 | 0.00 | 0.00 | 0.00 | 96 | 1016.8 |
| 20260507024521 | 10 | 357 | 24.1 | 35.4 | 0.00 | 0.00 | 0.00 | 96 | 1017.0 |